Waar ligt Igreja Mediaval in Portugal?

Igreja Mediaval is gevestigd in de regio Santarem in Portugal!

Zoek de plaatsnaam:

Igreja, Igreja da Misericórdia, Igrexa Parroquial de San Xulián de Carantoña, Igreja, Igreja Nova

Hier ziet u waar Igreja Mediaval op de kaart ligt.
Voor een indruk van hoe het er nu buiten uitziet staan onderaan wat plaatjes van de omgeving vanuit online web camera's.
U ziet ook de afstanden tot de belangrijkste plaatsen in de regio en tot plaatsen in de rest van Portugal.

Alle plaatsen in de wereld die heten.

new

Waar ligt Igreja Mediaval op de kaart?


Webcams vlakbij Igreja Mediaval

Vasco Carão > South: Garrocheira, Benavente - Airport.


Vasco Carão > South: Garrocheira, Benavente - Airport - Overdag
Recent
Vasco Carão > South: Garrocheira, Benavente - Airport - Recent

Benavente > North-East: AIrport, METAR: BENAV 180005Z 36004KT 17/14 Q1015.


Benavente > North-East: AIrport, METAR: BENAV 180005Z 36004KT 17/14 Q1015 - Overdag
Recent
Benavente > North-East: AIrport, METAR: BENAV 180005Z 36004KT 17/14 Q1015 - Recent

Caldas da Rainha.


Caldas da Rainha - Overdag
Recent
Caldas da Rainha - Recent

Webcams provided by webcams.travel

Afstanden

Waar ligt Igreja Mediaval ten opzichte van andere plaatsen?

Top 10 plaatsen in Santarem en afstand vanaf Igreja Mediaval.

Plaats#Inwonerskmmijl
Santarém1293851610
Entroncamento2198874830
Tomar3191686339
Torres Novas4145264528
Samora Correia5141542415
Abrantes6136466641
Ourém7127296037
Rio Maior8120642314
Fátima9117985534
Almeirim10115562113

Top 10 plaatsen in Portugal en afstand vanaf Igreja Mediaval.

Plaats # Inwonerskmmijl
Lisbon15177985534
Porto2249630224139
Amadora31788565534
Braga4121393269167
Setúbal51171096943
Coimbra610658012276
Queluz71033985635
Funchal8980411025637
Vila Nova de Gaia970810222138
Loures10662304528

Reisadvies Portugal

Advies en informatie van het ministerie van Buitenlandse Zaken over (zaken)reizen en veiligheidsrisico’s in Portugal via rijksoverheid.nl.

Met een reisadvies kunnen Nederlandse reizigers zich beter voorbereiden op veiligheidsrisico’s tijdens een buitenlands vakantie of verblijf. Wees geinformerd over de risico's op ontvoeringen, gewapende overvallen, bomaanslagen, natuurrampen of oorlogsgeweld. Buitenlandse Zaken vermeldt in een reisadvies bijvoorbeeld welke gebieden in Portugalo onveilig zijn, roept reizigers op tot waakzaamheid of ontraadt reizen.

Reisadvies Portugal



Reisinformatie Portugal

Informatie over residocumenten, aanvragen van een visa en de kosten hiervan. Contactinformatie van de ambassade in Portugal. Informatie over reisverzekeringen.

Reisinformatie Portugal